createdAt,value
2023-05-16T00:01:49.293Z,79.52
2023-05-16T00:04:16.230Z,79.78
2023-05-16T00:06:42.810Z,79.70
2023-05-16T00:09:09.350Z,79.79
2023-05-16T00:11:35.885Z,79.76
2023-05-16T00:14:02.721Z,79.85
2023-05-16T00:16:30.239Z,79.76
2023-05-16T00:18:57.910Z,79.81
2023-05-16T00:21:25.122Z,79.94
2023-05-16T00:23:52.834Z,80.17
2023-05-16T00:26:19.484Z,79.98
2023-05-16T00:28:46.276Z,80.27
2023-05-16T00:31:12.853Z,80.38
2023-05-16T00:33:39.398Z,80.38
2023-05-16T00:36:06.401Z,80.78
2023-05-16T00:38:34.544Z,80.76
2023-05-16T00:41:01.143Z,81.19
2023-05-16T00:43:27.715Z,81.10
2023-05-16T00:45:54.327Z,81.23
2023-05-16T00:48:21.020Z,81.17
2023-05-16T00:50:47.672Z,81.70
2023-05-16T00:53:14.224Z,81.93
2023-05-16T00:55:41.110Z,82.08
2023-05-16T00:58:07.878Z,82.55
2023-05-16T01:00:34.756Z,82.11
2023-05-16T01:03:01.597Z,82.22
2023-05-16T01:05:29.432Z,82.26
2023-05-16T01:07:56.426Z,82.50
2023-05-16T01:10:23.697Z,82.44
2023-05-16T01:13:01.209Z,82.59
2023-05-16T01:15:39.747Z,82.70
2023-05-16T01:18:44.685Z,82.62
2023-05-16T01:21:35.779Z,82.69
2023-05-16T01:24:16.050Z,82.58
2023-05-16T01:26:44.135Z,82.62
2023-05-16T01:29:10.874Z,82.41
2023-05-16T01:31:37.427Z,82.58
2023-05-16T01:34:04.505Z,82.76
2023-05-16T01:36:44.791Z,82.85
2023-05-16T01:42:19.640Z,82.84
2023-05-16T01:45:12.997Z,83.12
2023-05-16T01:47:43.351Z,83.20
2023-05-16T01:50:20.813Z,83.16
2023-05-16T01:52:52.900Z,83.40
2023-05-16T01:55:48.679Z,83.11
2023-05-16T01:58:19.264Z,83.38
2023-05-16T02:00:46.056Z,83.08
2023-05-16T02:03:12.644Z,83.35
2023-05-16T02:05:39.561Z,83.60
2023-05-16T02:08:06.507Z,83.55
2023-05-16T02:10:33.077Z,83.50
2023-05-16T02:12:59.727Z,83.48
2023-05-16T02:15:26.612Z,83.79
2023-05-16T02:17:53.695Z,83.82
2023-05-16T02:20:20.340Z,83.93
2023-05-16T02:22:47.597Z,84.10
2023-05-16T02:25:15.504Z,84.04
2023-05-16T02:27:43.255Z,84.35
2023-05-16T02:30:12.923Z,84.37
2023-05-16T02:32:40.653Z,84.33
2023-05-16T02:35:08.323Z,84.99
2023-05-16T02:37:35.163Z,84.75
2023-05-16T02:40:02.447Z,84.58
2023-05-16T02:42:29.382Z,85.16
2023-05-16T02:47:37.120Z,85.07
2023-05-16T02:52:44.425Z,85.27
2023-05-16T03:00:37.568Z,85.68
2023-05-16T03:03:04.521Z,85.37
2023-05-16T03:05:31.806Z,85.53
2023-05-16T03:07:58.487Z,85.53
2023-05-16T03:10:25.301Z,85.94
2023-05-16T03:12:51.931Z,85.85
2023-05-16T03:15:18.699Z,85.99
2023-05-16T03:17:45.361Z,86.07
2023-05-16T03:20:12.296Z,86.00
2023-05-16T03:22:40.670Z,85.79
2023-05-16T03:25:07.956Z,85.95
2023-05-16T03:27:34.673Z,86.07
2023-05-16T03:30:01.222Z,86.07
2023-05-16T03:32:27.727Z,85.92
2023-05-16T03:34:54.228Z,85.92
2023-05-16T03:37:20.862Z,86.14
2023-05-16T03:39:47.461Z,86.18
2023-05-16T03:42:14.043Z,86.56
2023-05-16T03:44:41.406Z,86.57
2023-05-16T03:47:08.178Z,86.74
2023-05-16T03:49:37.053Z,86.92
2023-05-16T03:52:05.188Z,87.28
2023-05-16T03:54:31.918Z,86.71
2023-05-16T03:56:58.423Z,87.03
2023-05-16T03:59:25.194Z,86.65
2023-05-16T04:01:51.665Z,86.50
2023-05-16T04:04:18.496Z,86.22
2023-05-16T04:06:44.974Z,86.06
2023-05-16T04:09:12.045Z,86.22
2023-05-16T04:11:38.885Z,86.13
2023-05-16T04:14:05.532Z,86.06
2023-05-16T04:16:32.686Z,86.12
2023-05-16T04:18:59.932Z,85.99
2023-05-16T04:21:26.569Z,86.14
2023-05-16T04:23:53.147Z,85.82
2023-05-16T04:26:22.771Z,85.50
2023-05-16T04:28:49.399Z,85.35
2023-05-16T04:31:16.450Z,85.06
2023-05-16T04:33:43.182Z,85.00
2023-05-16T04:36:09.824Z,84.48
2023-05-16T04:38:36.797Z,84.94
2023-05-16T04:41:03.955Z,84.81
2023-05-16T04:43:30.574Z,84.75
2023-05-16T04:45:59.110Z,83.91
2023-05-16T04:48:25.902Z,85.01
2023-05-16T04:50:52.725Z,85.36
2023-05-16T04:53:19.176Z,81.99
2023-05-16T04:55:45.755Z,77.72
2023-05-16T04:58:12.537Z,76.01
2023-05-16T05:00:39.786Z,73.50
2023-05-16T05:03:06.662Z,70.96
2023-05-16T05:05:34.026Z,67.11
2023-05-16T05:08:02.278Z,65.85
2023-05-16T05:10:28.831Z,66.93
2023-05-16T05:12:55.677Z,68.42
2023-05-16T05:15:22.455Z,65.22
2023-05-16T05:17:49.135Z,63.20
2023-05-16T05:20:15.912Z,63.33
2023-05-16T05:22:42.706Z,64.12
2023-05-16T05:25:09.704Z,64.90
2023-05-16T05:27:36.372Z,65.55
2023-05-16T05:30:03.880Z,66.53
2023-05-16T05:32:31.302Z,67.48
2023-05-16T05:34:57.972Z,64.49
2023-05-16T05:37:25.450Z,61.51
2023-05-16T05:39:52.030Z,61.54
2023-05-16T05:42:18.648Z,63.86
2023-05-16T05:44:45.169Z,68.03
2023-05-16T05:47:12.042Z,66.29
2023-05-16T05:49:38.802Z,62.29
2023-05-16T05:52:05.526Z,59.91
2023-05-16T05:54:33.890Z,56.69
2023-05-16T05:57:00.663Z,53.75
2023-05-16T05:59:27.604Z,54.01
2023-05-16T06:01:54.109Z,54.03
2023-05-16T06:04:23.438Z,52.58
2023-05-16T06:06:49.971Z,51.90
2023-05-16T06:09:16.782Z,52.14
2023-05-16T06:11:45.877Z,48.89
2023-05-16T06:14:15.939Z,51.15
2023-05-16T06:16:42.544Z,50.20
2023-05-16T06:19:09.905Z,50.06
2023-05-16T06:21:36.560Z,49.36
2023-05-16T06:24:03.465Z,50.54
2023-05-16T06:26:30.002Z,49.73
2023-05-16T06:28:56.574Z,51.77
2023-05-16T06:31:23.177Z,49.69
2023-05-16T06:33:49.821Z,49.63
2023-05-16T06:36:16.420Z,51.99
2023-05-16T06:38:42.969Z,51.47
2023-05-16T06:41:09.483Z,54.14
2023-05-16T06:43:36.219Z,55.59
2023-05-16T06:46:03.987Z,55.77
2023-05-16T06:48:30.758Z,56.88
2023-05-16T06:50:57.674Z,57.04
2023-05-16T06:53:24.247Z,58.02
2023-05-16T06:55:51.322Z,56.43
2023-05-16T06:58:17.832Z,58.53
2023-05-16T07:00:44.564Z,57.32
2023-05-16T07:03:11.385Z,53.95
2023-05-16T07:05:37.929Z,54.07
2023-05-16T07:08:07.597Z,54.01
2023-05-16T07:10:34.718Z,53.96
2023-05-16T07:13:02.025Z,54.01
2023-05-16T07:15:28.822Z,52.42
2023-05-16T07:17:55.577Z,53.26
2023-05-16T07:20:22.195Z,54.85
2023-05-16T07:22:48.827Z,55.81
2023-05-16T07:25:16.161Z,56.55
2023-05-16T07:27:45.185Z,54.67
2023-05-16T07:30:16.361Z,55.45
2023-05-16T07:32:43.556Z,54.79
2023-05-16T07:35:10.888Z,55.97
2023-05-16T07:37:37.617Z,55.19
2023-05-16T07:40:04.708Z,56.20
2023-05-16T07:42:31.959Z,57.97
2023-05-16T07:44:58.856Z,57.39
2023-05-16T07:47:25.899Z,56.57
2023-05-16T07:49:52.790Z,58.01
2023-05-16T07:52:19.713Z,56.37
2023-05-16T07:54:47.780Z,58.73
2023-05-16T07:57:15.733Z,58.89
2023-05-16T07:59:43.091Z,57.26
2023-05-16T08:02:10.736Z,56.56
2023-05-16T08:04:37.797Z,61.10
2023-05-16T08:07:04.743Z,64.96
2023-05-16T08:09:31.391Z,66.67
2023-05-16T08:11:58.040Z,68.42
2023-05-16T08:14:24.644Z,70.04
2023-05-16T08:16:51.552Z,70.89
2023-05-16T08:19:18.213Z,72.17
2023-05-16T08:21:44.830Z,72.96
2023-05-16T08:24:12.170Z,72.33
2023-05-16T08:26:38.987Z,72.35
2023-05-16T08:29:05.585Z,72.04
2023-05-16T08:31:32.860Z,71.82
2023-05-16T08:34:02.143Z,69.69
2023-05-16T08:36:28.775Z,69.46
2023-05-16T08:38:55.559Z,67.85
2023-05-16T08:41:22.127Z,67.45
2023-05-16T08:43:49.055Z,65.91
2023-05-16T08:46:20.850Z,64.63
2023-05-16T08:48:49.240Z,63.77
2023-05-16T08:51:19.115Z,63.68
2023-05-16T08:53:52.415Z,65.51
2023-05-16T08:56:19.330Z,65.33
2023-05-16T08:58:46.617Z,66.13
2023-05-16T09:01:13.751Z,63.77
2023-05-16T09:03:41.005Z,63.96
2023-05-16T09:06:08.433Z,63.05
2023-05-16T09:08:35.147Z,58.48
2023-05-16T09:11:03.615Z,58.47
2023-05-16T09:13:30.135Z,58.70
2023-05-16T09:16:10.200Z,60.28
2023-05-16T09:18:37.951Z,58.81
2023-05-16T09:21:07.899Z,60.19
2023-05-16T09:23:37.107Z,58.01
2023-05-16T09:26:08.065Z,56.96
2023-05-16T09:28:37.963Z,54.59
2023-05-16T09:31:04.618Z,52.93
2023-05-16T09:33:31.276Z,51.27
2023-05-16T09:35:59.622Z,55.21
2023-05-16T09:38:27.755Z,54.12
2023-05-16T09:40:55.514Z,50.80
2023-05-16T09:43:25.367Z,52.57
2023-05-16T09:45:53.679Z,52.25
2023-05-16T09:48:21.686Z,51.55
2023-05-16T09:50:52.409Z,52.15
2023-05-16T09:53:27.057Z,50.34
2023-05-16T09:56:11.764Z,48.95
2023-05-16T09:58:39.908Z,49.03
2023-05-16T10:01:07.875Z,47.52
2023-05-16T10:03:36.712Z,48.84
2023-05-16T10:06:05.891Z,51.11
2023-05-16T10:08:37.362Z,46.66
2023-05-16T10:11:05.887Z,49.43
2023-05-16T10:13:34.869Z,49.65
2023-05-16T10:16:25.500Z,49.72
2023-05-16T10:18:52.552Z,48.10
2023-05-16T10:21:22.101Z,48.08
2023-05-16T10:23:51.696Z,47.97
2023-05-16T10:26:21.454Z,47.52
2023-05-16T10:28:49.283Z,47.80
2023-05-16T10:31:16.426Z,47.19
2023-05-16T10:33:43.311Z,49.24
2023-05-16T10:36:11.282Z,49.19
2023-05-16T10:38:38.960Z,48.66
2023-05-16T10:41:07.119Z,48.80
2023-05-16T10:43:33.945Z,47.30
2023-05-16T10:46:09.990Z,49.54
2023-05-16T10:48:39.139Z,46.31
2023-05-16T10:51:38.636Z,47.19
2023-05-16T10:54:10.683Z,51.25
2023-05-16T10:56:37.677Z,48.12
2023-05-16T10:59:05.059Z,48.72
2023-05-16T11:01:35.439Z,50.99
2023-05-16T11:04:05.877Z,50.48
2023-05-16T11:06:44.926Z,47.04
2023-05-16T11:09:11.635Z,45.66
2023-05-16T11:11:53.714Z,45.98
2023-05-16T11:14:20.444Z,46.78
2023-05-16T11:17:00.758Z,47.51
2023-05-16T11:19:34.844Z,47.32
2023-05-16T11:22:08.498Z,48.14
2023-05-16T11:24:36.978Z,46.36
2023-05-16T11:27:04.862Z,45.66
2023-05-16T11:29:33.842Z,46.74
2023-05-16T11:32:02.356Z,48.72
2023-05-16T11:34:31.212Z,48.23
2023-05-16T11:36:58.163Z,48.90
2023-05-16T11:39:25.213Z,51.62
2023-05-16T11:41:53.935Z,50.27
2023-05-16T11:44:20.633Z,50.19
2023-05-16T11:46:47.785Z,50.40
2023-05-16T11:49:14.921Z,52.02
2023-05-16T11:51:43.413Z,50.91
2023-05-16T11:54:10.536Z,49.67
2023-05-16T11:56:37.535Z,52.60
2023-05-16T11:59:04.522Z,52.72
2023-05-16T12:01:40.474Z,52.38
2023-05-16T12:04:12.503Z,52.47
2023-05-16T12:06:40.066Z,52.86
2023-05-16T12:09:11.178Z,52.02
2023-05-16T12:11:38.786Z,54.65
2023-05-16T12:14:10.417Z,54.13
2023-05-16T12:16:38.123Z,53.04
2023-05-16T12:19:08.419Z,53.64
2023-05-16T12:21:35.920Z,52.47
2023-05-16T12:24:02.623Z,53.03
2023-05-16T12:26:33.895Z,52.77
2023-05-16T12:29:03.604Z,51.36
2023-05-16T12:31:32.550Z,54.56
2023-05-16T12:33:59.733Z,52.96
2023-05-16T12:36:26.543Z,53.76
2023-05-16T12:38:53.744Z,55.20
2023-05-16T12:41:21.722Z,53.90
2023-05-16T12:43:49.243Z,54.36
2023-05-16T12:46:16.444Z,54.79
2023-05-16T12:48:44.251Z,55.45
2023-05-16T12:51:15.860Z,55.85
2023-05-16T12:53:57.644Z,54.74
2023-05-16T12:56:28.401Z,55.37
2023-05-16T12:58:55.394Z,55.48
2023-05-16T13:01:22.003Z,55.86
2023-05-16T13:03:48.787Z,54.05
2023-05-16T13:06:15.890Z,54.65
2023-05-16T13:08:42.672Z,55.50
2023-05-16T13:11:09.356Z,54.94
2023-05-16T13:13:36.777Z,55.33
2023-05-16T13:16:04.343Z,55.04
2023-05-16T13:18:31.600Z,55.44
2023-05-16T13:20:58.646Z,53.85
2023-05-16T13:23:25.269Z,51.56
2023-05-16T13:25:53.054Z,52.18
2023-05-16T13:28:19.633Z,52.92
2023-05-16T13:30:46.148Z,52.52
2023-05-16T13:33:12.826Z,53.93
2023-05-16T13:35:39.404Z,55.54
2023-05-16T13:38:05.972Z,56.67
2023-05-16T13:40:32.969Z,56.50
2023-05-16T13:43:01.029Z,55.99
2023-05-16T13:45:28.793Z,55.09
2023-05-16T13:47:55.994Z,56.42
2023-05-16T13:50:25.103Z,54.69
2023-05-16T13:52:52.311Z,53.11
2023-05-16T13:55:19.242Z,54.78
2023-05-16T13:57:46.127Z,53.10
2023-05-16T14:02:43.249Z,53.39
2023-05-16T14:05:10.419Z,54.84
2023-05-16T14:07:37.693Z,55.04
2023-05-16T14:10:06.735Z,53.75
2023-05-16T14:12:33.982Z,54.71
2023-05-16T14:15:00.851Z,54.52
2023-05-16T14:17:27.472Z,53.83
2023-05-16T14:19:54.038Z,54.07
2023-05-16T14:22:20.776Z,54.58
2023-05-16T14:24:47.398Z,53.91
2023-05-16T14:27:15.350Z,54.46
2023-05-16T14:29:42.083Z,56.02
2023-05-16T14:32:11.420Z,54.08
2023-05-16T14:34:38.058Z,55.06
2023-05-16T14:37:04.778Z,53.96
2023-05-16T14:39:31.469Z,54.47
2023-05-16T14:41:58.061Z,55.41
2023-05-16T14:44:25.155Z,55.19
2023-05-16T14:46:51.891Z,53.75
2023-05-16T14:49:18.432Z,54.41
2023-05-16T14:51:50.493Z,54.97
2023-05-16T14:54:17.097Z,53.45
2023-05-16T14:56:43.803Z,54.23
2023-05-16T14:59:10.310Z,55.09
2023-05-16T15:01:37.188Z,54.09
2023-05-16T15:04:03.836Z,53.82
2023-05-16T15:06:30.599Z,53.48
2023-05-16T15:08:57.186Z,52.67
2023-05-16T15:11:23.765Z,52.39
2023-05-16T15:13:50.433Z,51.95
2023-05-16T15:16:17.054Z,53.98
2023-05-16T15:18:43.912Z,50.96
2023-05-16T15:21:10.542Z,51.44
2023-05-16T15:23:37.369Z,50.75
2023-05-16T15:26:04.523Z,50.85
2023-05-16T15:28:31.103Z,51.28
2023-05-16T15:30:57.617Z,51.54
2023-05-16T15:33:24.132Z,52.96
2023-05-16T15:35:52.029Z,52.40
2023-05-16T15:38:18.488Z,52.31
2023-05-16T15:40:44.997Z,52.34
2023-05-16T15:43:11.421Z,52.22
2023-05-16T15:45:40.107Z,52.23
2023-05-16T15:48:07.223Z,52.48
2023-05-16T15:50:33.962Z,52.81
2023-05-16T15:53:00.726Z,52.84
2023-05-16T15:55:27.547Z,53.17
2023-05-16T15:57:57.340Z,53.07
2023-05-16T16:00:24.900Z,53.50
2023-05-16T16:02:51.884Z,53.64
2023-05-16T16:05:18.628Z,54.68
2023-05-16T16:07:45.748Z,55.20
2023-05-16T16:10:12.793Z,55.08
2023-05-16T16:12:39.886Z,56.08
2023-05-16T16:15:07.496Z,56.46
2023-05-16T16:17:34.107Z,57.12
2023-05-16T16:20:01.087Z,56.91
2023-05-16T16:22:27.709Z,56.86
2023-05-16T16:24:54.330Z,58.51
2023-05-16T16:27:21.212Z,58.94
2023-05-16T16:29:47.665Z,59.08
2023-05-16T16:32:14.560Z,59.36
2023-05-16T16:34:41.109Z,60.06
2023-05-16T16:37:10.007Z,60.46
2023-05-16T16:39:36.563Z,61.92
2023-05-16T16:42:03.152Z,63.16
2023-05-16T16:44:29.869Z,63.59
2023-05-16T16:46:56.599Z,63.98
2023-05-16T16:49:23.233Z,63.95
2023-05-16T16:51:50.147Z,64.04
2023-05-16T16:54:16.802Z,64.66
2023-05-16T16:56:43.372Z,64.77
2023-05-16T16:59:10.093Z,63.96
2023-05-16T17:01:37.006Z,64.12
2023-05-16T17:04:04.445Z,64.32
2023-05-16T17:06:31.129Z,64.50
2023-05-16T17:09:02.269Z,64.36
2023-05-16T17:11:30.144Z,64.73
2023-05-16T17:13:59.866Z,64.68
2023-05-16T17:16:28.786Z,65.11
2023-05-16T17:18:56.266Z,65.30
2023-05-16T17:21:22.867Z,65.67
2023-05-16T17:23:52.334Z,65.68
2023-05-16T17:26:19.195Z,66.30
2023-05-16T17:28:48.505Z,66.58
2023-05-16T17:31:15.208Z,66.33
2023-05-16T17:33:43.911Z,66.54
2023-05-16T17:36:10.904Z,66.81
2023-05-16T17:38:37.701Z,67.23
2023-05-16T17:41:04.766Z,66.23
2023-05-16T17:43:31.712Z,65.69
2023-05-16T17:45:58.644Z,64.69
2023-05-16T17:48:25.340Z,64.50
2023-05-16T17:50:52.175Z,64.05
2023-05-16T17:53:19.457Z,64.68
2023-05-16T17:55:46.507Z,65.03
2023-05-16T17:58:19.268Z,65.08
2023-05-16T18:00:48.895Z,64.92
2023-05-16T18:03:15.878Z,64.91
2023-05-16T18:05:42.516Z,65.48
2023-05-16T18:08:09.124Z,65.32
2023-05-16T18:10:50.416Z,65.02
2023-05-16T18:13:18.023Z,65.57
2023-05-16T18:15:44.789Z,66.07
2023-05-16T18:18:11.807Z,65.90
2023-05-16T18:20:38.448Z,65.71
2023-05-16T18:23:05.385Z,64.77
2023-05-16T18:25:32.209Z,65.31
2023-05-16T18:27:58.794Z,65.88
2023-05-16T18:30:26.315Z,66.11
2023-05-16T18:32:53.002Z,65.40
2023-05-16T18:35:19.651Z,65.69
2023-05-16T18:37:46.727Z,66.18
2023-05-16T18:40:13.784Z,66.66
2023-05-16T18:42:40.539Z,66.66
2023-05-16T18:45:08.285Z,66.56
2023-05-16T18:47:34.947Z,67.17
2023-05-16T18:50:01.765Z,67.33
2023-05-16T18:52:28.419Z,67.60
2023-05-16T18:54:54.943Z,68.43
2023-05-16T18:57:21.744Z,68.82
2023-05-16T18:59:49.852Z,69.12
2023-05-16T19:02:20.553Z,69.26
2023-05-16T19:05:01.313Z,69.26
2023-05-16T19:07:28.731Z,69.33
2023-05-16T19:09:56.003Z,69.18
2023-05-16T19:12:22.987Z,69.41
2023-05-16T19:14:49.643Z,69.93
2023-05-16T19:17:16.390Z,69.80
2023-05-16T19:19:43.287Z,69.88
2023-05-16T19:22:09.879Z,70.15
2023-05-16T19:24:36.604Z,70.57
2023-05-16T19:27:04.152Z,70.90
2023-05-16T19:29:30.851Z,70.70
2023-05-16T19:31:57.746Z,70.79
2023-05-16T19:34:26.549Z,71.05
2023-05-16T19:36:53.457Z,71.12
2023-05-16T19:39:19.993Z,71.24
2023-05-16T19:41:51.609Z,71.14
2023-05-16T19:44:18.901Z,71.72
2023-05-16T19:46:45.491Z,71.89
2023-05-16T19:49:11.956Z,71.90
2023-05-16T19:51:41.840Z,72.18
2023-05-16T19:54:08.864Z,72.13
2023-05-16T19:56:35.856Z,72.16
2023-05-16T19:59:02.713Z,72.11
2023-05-16T20:01:29.704Z,72.18
2023-05-16T20:03:56.279Z,72.57
2023-05-16T20:06:22.832Z,72.71
2023-05-16T20:08:49.537Z,72.86
2023-05-16T20:11:16.080Z,73.12
2023-05-16T20:13:42.585Z,72.99
2023-05-16T20:16:09.380Z,73.20
2023-05-16T20:18:36.353Z,73.24
2023-05-16T20:21:03.311Z,73.55
2023-05-16T20:23:29.992Z,73.39
2023-05-16T20:25:56.807Z,73.92
2023-05-16T20:28:23.349Z,74.31
2023-05-16T20:30:49.997Z,74.23
2023-05-16T20:33:16.731Z,75.09
2023-05-16T20:35:43.415Z,74.75
2023-05-16T20:38:10.183Z,75.71
2023-05-16T20:40:36.891Z,75.89
2023-05-16T20:43:03.488Z,76.16
2023-05-16T20:47:58.043Z,76.01
2023-05-16T20:50:24.569Z,76.09
2023-05-16T20:52:51.273Z,76.46
2023-05-16T20:55:17.915Z,76.74
2023-05-16T20:57:44.442Z,76.58
2023-05-16T21:00:11.542Z,76.64
2023-05-16T21:02:38.043Z,76.25
2023-05-16T21:05:23.201Z,76.35
2023-05-16T21:07:51.359Z,76.17
2023-05-16T21:10:18.030Z,76.63
2023-05-16T21:12:44.699Z,77.04
2023-05-16T21:15:11.498Z,77.38
2023-05-16T21:17:39.641Z,77.39
2023-05-16T21:20:07.054Z,77.24
2023-05-16T21:22:33.590Z,77.83
2023-05-16T21:25:00.057Z,78.25
2023-05-16T21:27:26.558Z,78.32
2023-05-16T21:29:53.121Z,78.14
2023-05-16T21:32:19.673Z,78.24
2023-05-16T21:34:46.244Z,78.55
2023-05-16T21:37:12.920Z,78.54
2023-05-16T21:39:39.515Z,78.77
2023-05-16T21:42:06.260Z,79.01
2023-05-16T21:44:32.785Z,79.00
2023-05-16T21:46:59.393Z,79.03
2023-05-16T21:49:26.036Z,78.47
2023-05-16T21:51:52.538Z,78.57
2023-05-16T21:54:19.073Z,78.63
2023-05-16T21:56:45.678Z,79.18
2023-05-16T21:59:13.832Z,79.00
2023-05-16T22:01:40.332Z,78.74
2023-05-16T22:04:06.989Z,78.55
2023-05-16T22:06:33.615Z,79.11
2023-05-16T22:09:01.595Z,79.11
2023-05-16T22:11:28.628Z,79.34
2023-05-16T22:13:55.179Z,79.38
2023-05-16T22:16:21.822Z,79.35
2023-05-16T22:18:48.499Z,79.66
2023-05-16T22:21:16.387Z,80.31
2023-05-16T22:23:43.017Z,80.16
2023-05-16T22:26:09.560Z,80.23
2023-05-16T22:28:36.168Z,80.30
2023-05-16T22:31:02.857Z,80.78
2023-05-16T22:33:29.891Z,80.79
2023-05-16T22:35:56.854Z,80.74
2023-05-16T22:38:23.572Z,80.43
2023-05-16T22:40:50.138Z,80.43
2023-05-16T22:43:16.646Z,80.51
2023-05-16T22:45:43.389Z,80.65
2023-05-16T22:48:09.973Z,80.63
2023-05-16T22:50:36.669Z,80.60
2023-05-16T22:53:03.479Z,80.39
2023-05-16T22:55:30.304Z,80.48
2023-05-16T22:57:59.902Z,80.78
2023-05-16T23:00:26.526Z,81.41
2023-05-16T23:02:53.224Z,81.26
2023-05-16T23:05:19.951Z,81.63
2023-05-16T23:07:46.836Z,81.47
2023-05-16T23:10:13.428Z,81.23
2023-05-16T23:12:40.016Z,81.07
2023-05-16T23:15:10.053Z,81.22
2023-05-16T23:17:39.756Z,80.77
2023-05-16T23:20:07.306Z,80.82
2023-05-16T23:22:33.930Z,80.54
2023-05-16T23:25:00.670Z,80.87
2023-05-16T23:27:27.288Z,80.87
2023-05-16T23:29:53.840Z,81.13
2023-05-16T23:32:20.434Z,81.23
2023-05-16T23:34:47.062Z,81.82
2023-05-16T23:37:13.861Z,81.14
2023-05-16T23:39:41.083Z,81.32
2023-05-16T23:42:07.768Z,81.38
2023-05-16T23:44:34.838Z,81.14
2023-05-16T23:47:01.334Z,81.29
2023-05-16T23:49:27.851Z,81.76
2023-05-16T23:51:57.915Z,81.54
2023-05-16T23:54:25.874Z,81.35
2023-05-16T23:56:52.476Z,81.17
2023-05-16T23:59:19.168Z,81.50
